Terminal Aerodrome Forecast
Issued by NWS Northern Indiana

Home | Current Version | Previous Version | Graphics & Text | Print | Product List | Glossary On
Versions: 1 2 3 4 5 6 7 8 9 10 11 12 13 14
000
FTUS43 KIWX 181100 RRA
TAFFWA
TAF
KFWA 181139Z 1812/1912 30010KT P6SM VCSH BKN025
     FM181400 32012G20KT P6SM BKN030
     FM181700 32012G18KT P6SM VCSH BKN030
     FM190000 32008KT P6SM BKN035
     FM190600 VRB03KT P6SM FEW035=

USA.gov is the U.S. government's official web portal to all federal, state and local government web resources and services.